sensor_id;sensor_type;location;lat;lon;timestamp;pressure;altitude;pressure_sealevel;temperature;humidity
69667;BME280;66534;52.370;4.832;2023-02-17T00:00:15;101822.66;;;9.12;100.00
69667;BME280;66534;52.370;4.832;2023-02-17T00:00:45;101830.59;;;9.09;100.00
69667;BME280;66534;52.370;4.832;2023-02-17T00:01:50;101823.53;;;9.12;100.00
69667;BME280;66534;52.370;4.832;2023-02-17T00:02:20;101837.31;;;9.20;100.00
69667;BME280;66534;52.370;4.832;2023-02-17T00:02:59;101820.81;;;9.15;100.00
69667;BME280;66534;52.370;4.832;2023-02-17T00:03:30;101841.00;;;9.12;100.00
69667;BME280;66534;52.370;4.832;2023-02-17T00:04:00;101830.59;;;9.09;100.00
69667;BME280;66534;52.370;4.832;2023-02-17T00:04:31;101830.38;;;9.18;100.00
69667;BME280;66534;52.370;4.832;2023-02-17T00:05:03;101834.13;;;9.06;100.00
69667;BME280;66534;52.370;4.832;2023-02-17T00:05:34;101833.13;;;9.12;100.00
69667;BME280;66534;52.370;4.832;2023-02-17T00:06:08;101832.34;;;9.07;100.00
69667;BME280;66534;52.370;4.832;2023-02-17T00:06:40;101841.09;;;9.07;100.00
69667;BME280;66534;52.370;4.832;2023-02-17T00:07:10;101838.38;;;9.10;100.00
69667;BME280;66534;52.370;4.832;2023-02-17T00:07:41;101830.63;;;9.07;100.00
69667;BME280;66534;52.370;4.832;2023-02-17T00:08:11;101831.41;;;9.11;100.00
69667;BME280;66534;52.370;4.832;2023-02-17T00:08:42;101840.16;;;9.10;100.00
69667;BME280;66534;52.370;4.832;2023-02-17T00:09:13;101835.75;;;9.12;100.00
69667;BME280;66534;52.370;4.832;2023-02-17T00:09:43;101840.91;;;9.15;100.00
69667;BME280;66534;52.370;4.832;2023-02-17T00:10:14;101842.53;;;9.20;100.00
69667;BME280;66534;52.370;4.832;2023-02-17T00:10:53;101838.19;;;9.19;100.00
69667;BME280;66534;52.370;4.832;2023-02-17T00:11:24;101837.56;;;9.08;100.00
69667;BME280;66534;52.370;4.832;2023-02-17T00:11:57;101841.97;;;9.08;100.00
69667;BME280;66534;52.370;4.832;2023-02-17T00:12:27;101849.81;;;9.08;100.00
69667;BME280;66534;52.370;4.832;2023-02-17T00:12:58;101843.72;;;9.06;100.00
69667;BME280;66534;52.370;4.832;2023-02-17T00:13:28;101837.59;;;9.07;100.00
69667;BME280;66534;52.370;4.832;2023-02-17T00:13:59;101839.22;;;9.12;100.00
69667;BME280;66534;52.370;4.832;2023-02-17T00:14:29;101849.88;;;9.05;100.00
69667;BME280;66534;52.370;4.832;2023-02-17T00:14:59;101840.31;;;9.04;100.00
69667;BME280;66534;52.370;4.832;2023-02-17T00:15:30;101844.72;;;9.00;100.00
69667;BME280;66534;52.370;4.832;2023-02-17T00:16:16;101844.69;;;9.03;100.00
69667;BME280;66534;52.370;4.832;2023-02-17T00:16:49;101833.25;;;9.07;100.00
69667;BME280;66534;52.370;4.832;2023-02-17T00:17:19;101841.91;;;9.09;100.00
69667;BME280;66534;52.370;4.832;2023-02-17T00:17:50;101841.88;;;9.11;100.00
69667;BME280;66534;52.370;4.832;2023-02-17T00:18:20;101841.97;;;9.08;100.00
69667;BME280;66534;52.370;4.832;2023-02-17T00:18:52;101836.72;;;9.06;100.00
69667;BME280;66534;52.370;4.832;2023-02-17T00:19:27;101843.78;;;9.04;100.00
69667;BME280;66534;52.370;4.832;2023-02-17T00:19:57;101847.09;;;9.12;100.00
69667;BME280;66534;52.370;4.832;2023-02-17T00:20:28;101840.13;;;9.11;100.00
69667;BME280;66534;52.370;4.832;2023-02-17T00:20:59;101842.00;;;9.05;100.00
69667;BME280;66534;52.370;4.832;2023-02-17T00:21:30;101843.72;;;9.06;100.00
69667;BME280;66534;52.370;4.832;2023-02-17T00:22:01;101845.56;;;9.02;100.00
69667;BME280;66534;52.370;4.832;2023-02-17T00:22:31;101844.72;;;9.00;100.00
69667;BME280;66534;52.370;4.832;2023-02-17T00:23:02;101837.69;;;9.02;100.00
69667;BME280;66534;52.370;4.832;2023-02-17T00:23:32;101842.06;;;9.03;100.00
69667;BME280;66534;52.370;4.832;2023-02-17T00:24:02;101832.44;;;9.04;100.00
69667;BME280;66534;52.370;4.832;2023-02-17T00:24:35;101838.53;;;9.04;100.00
69667;BME280;66534;52.370;4.832;2023-02-17T00:25:07;101850.94;;;8.96;100.00
69667;BME280;66534;52.370;4.832;2023-02-17T00:25:37;101826.44;;;8.98;100.00
69667;BME280;66534;52.370;4.832;2023-02-17T00:26:08;101834.28;;;8.98;100.00
69667;BME280;66534;52.370;4.832;2023-02-17T00:26:38;101847.38;;;8.98;100.00
69667;BME280;66534;52.370;4.832;2023-02-17T00:27:09;101844.78;;;8.97;100.00
69667;BME280;66534;52.370;4.832;2023-02-17T00:27:39;101835.22;;;8.96;100.00
69667;BME280;66534;52.370;4.832;2023-02-17T00:28:09;101838.66;;;9.00;100.00
69667;BME280;66534;52.370;4.832;2023-02-17T00:28:40;101827.16;;;9.05;100.00
69667;BME280;66534;52.370;4.832;2023-02-17T00:29:10;101831.50;;;9.06;100.00
69667;BME280;66534;52.370;4.832;2023-02-17T00:29:41;101836.81;;;9.03;100.00
69667;BME280;66534;52.370;4.832;2023-02-17T00:30:11;101828.88;;;9.06;100.00
69667;BME280;66534;52.370;4.832;2023-02-17T00:30:42;101828.88;;;9.06;100.00
69667;BME280;66534;52.370;4.832;2023-02-17T00:31:13;101834.16;;;9.05;100.00
69667;BME280;66534;52.370;4.832;2023-02-17T00:31:46;101832.28;;;9.10;100.00
69667;BME280;66534;52.370;4.832;2023-02-17T00:32:16;101837.56;;;9.08;100.00
69667;BME280;66534;52.370;4.832;2023-02-17T00:32:47;101835.94;;;9.03;100.00
69667;BME280;66534;52.370;4.832;2023-02-17T00:33:17;101819.31;;;9.05;100.00
69667;BME280;66534;52.370;4.832;2023-02-17T00:33:48;101830.75;;;9.01;100.00
69667;BME280;66534;52.370;4.832;2023-02-17T00:34:18;101823.81;;;8.98;100.00
69667;BME280;66534;52.370;4.832;2023-02-17T00:34:50;101830.75;;;9.01;100.00
69667;BME280;66534;52.370;4.832;2023-02-17T00:35:21;101830.69;;;9.03;100.00
69667;BME280;66534;52.370;4.832;2023-02-17T00:35:52;101823.75;;;9.02;100.00
69667;BME280;66534;52.370;4.832;2023-02-17T00:36:23;101684.31;;;8.17;100.00
69667;BME280;66534;52.370;4.832;2023-02-17T00:36:54;101824.66;;;9.01;100.00
69667;BME280;66534;52.370;4.832;2023-02-17T00:37:25;101821.28;;;8.95;100.00
69667;BME280;66534;52.370;4.832;2023-02-17T00:37:55;101823.91;;;8.95;100.00
69667;BME280;66534;52.370;4.832;2023-02-17T00:38:27;101826.47;;;8.97;100.00
69667;BME280;66534;52.370;4.832;2023-02-17T00:38:58;101815.09;;;8.98;100.00
69667;BME280;66534;52.370;4.832;2023-02-17T00:39:28;101827.38;;;8.94;100.00
69667;BME280;66534;52.370;4.832;2023-02-17T00:39:59;101819.59;;;8.93;100.00
69667;BME280;66534;52.370;4.832;2023-02-17T00:40:29;101813.44;;;8.94;100.00
69667;BME280;66534;52.370;4.832;2023-02-17T00:40:59;101811.63;;;8.99;100.00
69667;BME280;66534;52.370;4.832;2023-02-17T00:41:30;101817.66;;;9.01;100.00
69667;BME280;66534;52.370;4.832;2023-02-17T00:42:00;101811.56;;;9.01;100.00
69667;BME280;66534;52.370;4.832;2023-02-17T00:42:31;101816.84;;;8.99;100.00
69667;BME280;66534;52.370;4.832;2023-02-17T00:43:01;101820.38;;;8.96;100.00
69667;BME280;66534;52.370;4.832;2023-02-17T00:43:31;101808.09;;;8.98;100.00
69667;BME280;66534;52.370;4.832;2023-02-17T00:44:02;101809.88;;;8.98;100.00
69667;BME280;66534;52.370;4.832;2023-02-17T00:44:33;101822.16;;;8.96;100.00
69667;BME280;66534;52.370;4.832;2023-02-17T00:45:03;101820.38;;;8.96;100.00
69667;BME280;66534;52.370;4.832;2023-02-17T00:45:34;101815.97;;;8.98;100.00
69667;BME280;66534;52.370;4.832;2023-02-17T00:46:05;101815.00;;;9.04;100.00
69667;BME280;66534;52.370;4.832;2023-02-17T00:46:35;101821.03;;;9.06;100.00
69667;BME280;66534;52.370;4.832;2023-02-17T00:47:05;101819.25;;;9.08;100.00
69667;BME280;66534;52.370;4.832;2023-02-17T00:47:36;101818.50;;;9.03;100.00
69667;BME280;66534;52.370;4.832;2023-02-17T00:48:06;101815.88;;;9.03;100.00
69667;BME280;66534;52.370;4.832;2023-02-17T00:48:37;101819.38;;;9.04;100.00
69667;BME280;66534;52.370;4.832;2023-02-17T00:49:07;101810.66;;;9.02;100.00
69667;BME280;66534;52.370;4.832;2023-02-17T00:49:44;101804.47;;;9.06;100.00
69667;BME280;66534;52.370;4.832;2023-02-17T00:50:14;101814.13;;;9.02;100.00
69667;BME280;66534;52.370;4.832;2023-02-17T00:50:45;101816.75;;;9.02;100.00
69667;BME280;66534;52.370;4.832;2023-02-17T00:51:15;101817.59;;;9.04;100.00
69667;BME280;66534;52.370;4.832;2023-02-17T00:51:46;101813.28;;;9.02;100.00
69667;BME280;66534;52.370;4.832;2023-02-17T00:52:17;101820.16;;;9.06;100.00
69667;BME280;66534;52.370;4.832;2023-02-17T00:52:47;101815.88;;;9.03;100.00
69667;BME280;66534;52.370;4.832;2023-02-17T00:53:18;101819.38;;;9.02;100.00
69667;BME280;66534;52.370;4.832;2023-02-17T00:53:49;101824.50;;;9.08;100.00
69667;BME280;66534;52.370;4.832;2023-02-17T00:54:20;101816.75;;;9.04;100.00
69667;BME280;66534;52.370;4.832;2023-02-17T00:54:51;101821.13;;;9.02;100.00
69667;BME280;66534;52.370;4.832;2023-02-17T00:55:21;101829.03;;;8.98;100.00
69667;BME280;66534;52.370;4.832;2023-02-17T00:55:51;101819.41;;;9.01;100.00
69667;BME280;66534;52.370;4.832;2023-02-17T00:56:22;101815.00;;;9.04;100.00
69667;BME280;66534;52.370;4.832;2023-02-17T00:56:52;101818.47;;;9.05;100.00
69667;BME280;66534;52.370;4.832;2023-02-17T00:57:23;101825.41;;;9.07;100.00
69667;BME280;66534;52.370;4.832;2023-02-17T00:57:55;101817.59;;;9.04;100.00
69667;BME280;66534;52.370;4.832;2023-02-17T00:58:25;101816.66;;;9.07;100.00
69667;BME280;66534;52.370;4.832;2023-02-17T00:58:56;101827.22;;;9.04;100.00
69667;BME280;66534;52.370;4.832;2023-02-17T00:59:26;101818.56;;;8.98;100.00
69667;BME280;66534;52.370;4.832;2023-02-17T00:59:57;101822.09;;;8.99;100.00
69667;BME280;66534;52.370;4.832;2023-02-17T01:00:27;101825.56;;;8.98;100.00
69667;BME280;66534;52.370;4.832;2023-02-17T01:00:58;101830.81;;;8.98;100.00
69667;BME280;66534;52.370;4.832;2023-02-17T01:01:29;101825.56;;;9.00;100.00
69667;BME280;66534;52.370;4.832;2023-02-17T01:02:00;101830.78;;;9.00;100.00
69667;BME280;66534;52.370;4.832;2023-02-17T01:02:30;101828.13;;;9.01;100.00
69667;BME280;66534;52.370;4.832;2023-02-17T01:03:00;101822.78;;;9.07;100.00
69667;BME280;66534;52.370;4.832;2023-02-17T01:03:31;101827.22;;;9.02;100.00
69667;BME280;66534;52.370;4.832;2023-02-17T01:04:01;101815.97;;;8.98;100.00
69667;BME280;66534;52.370;4.832;2023-02-17T01:04:32;101822.09;;;8.99;100.00
69667;BME280;66534;52.370;4.832;2023-02-17T01:05:03;101815.16;;;8.96;100.00
69667;BME280;66534;52.370;4.832;2023-02-17T01:05:38;101821.13;;;9.03;100.00
69667;BME280;66534;52.370;4.832;2023-02-17T01:06:17;101816.94;;;8.94;100.00
69667;BME280;66534;52.370;4.832;2023-02-17T01:06:51;101820.34;;;8.98;100.00
69667;BME280;66534;52.370;4.832;2023-02-17T01:07:22;101814.34;;;8.93;100.00
69667;BME280;66534;52.370;4.832;2023-02-17T01:07:52;101814.34;;;8.93;100.00
69667;BME280;66534;52.370;4.832;2023-02-17T01:08:22;101819.53;;;8.96;100.00
69667;BME280;66534;52.370;4.832;2023-02-17T01:08:54;101815.78;;;9.06;100.00
69667;BME280;66534;52.370;4.832;2023-02-17T01:09:25;101819.38;;;9.04;100.00
69667;BME280;66534;52.370;4.832;2023-02-17T01:09:55;101819.53;;;8.94;100.00
69667;BME280;66534;52.370;4.832;2023-02-17T01:10:25;101816.91;;;8.96;100.00
69667;BME280;66534;52.370;4.832;2023-02-17T01:10:56;101814.25;;;8.97;100.00
69667;BME280;66534;52.370;4.832;2023-02-17T01:11:27;101815.16;;;8.96;100.00
69667;BME280;66534;52.370;4.832;2023-02-17T01:11:59;101814.25;;;8.97;100.00
69667;BME280;66534;52.370;4.832;2023-02-17T01:12:29;101810.66;;;9.02;100.00
69667;BME280;66534;52.370;4.832;2023-02-17T01:13:00;101813.44;;;8.94;100.00
69667;BME280;66534;52.370;4.832;2023-02-17T01:13:30;101808.31;;;8.89;100.00
69667;BME280;66534;52.370;4.832;2023-02-17T01:14:01;101809.97;;;8.93;100.00
69667;BME280;66534;52.370;4.832;2023-02-17T01:14:35;101809.06;;;8.94;100.00
69667;BME280;66534;52.370;4.832;2023-02-17T01:15:05;101816.91;;;8.96;100.00
69667;BME280;66534;52.370;4.832;2023-02-17T01:15:37;101809.13;;;8.93;100.00
69667;BME280;66534;52.370;4.832;2023-02-17T01:16:18;101801.28;;;8.93;100.00
69667;BME280;66534;52.370;4.832;2023-02-17T01:16:54;101802.16;;;8.92;100.00
69667;BME280;66534;52.370;4.832;2023-02-17T01:17:24;101798.66;;;8.93;100.00
69667;BME280;66534;52.370;4.832;2023-02-17T01:17:54;101801.28;;;8.93;100.00
69667;BME280;66534;52.370;4.832;2023-02-17T01:18:25;101803.09;;;8.89;100.00
69667;BME280;66534;52.370;4.832;2023-02-17T01:18:55;101796.13;;;8.88;100.00
69667;BME280;66534;52.370;4.832;2023-02-17T01:19:26;101807.41;;;8.92;100.00
69667;BME280;66534;52.370;4.832;2023-02-17T01:19:56;101797.00;;;8.89;100.00
69667;BME280;66534;52.370;4.832;2023-02-17T01:20:27;101803.09;;;8.89;100.00
69667;BME280;66534;52.370;4.832;2023-02-17T01:20:57;101804.00;;;8.88;100.00
69667;BME280;66534;52.370;4.832;2023-02-17T01:21:28;101802.28;;;8.87;100.00
69667;BME280;66534;52.370;4.832;2023-02-17T01:21:59;101813.66;;;8.86;100.00
69667;BME280;66534;52.370;4.832;2023-02-17T01:22:30;101804.09;;;8.84;100.00
69667;BME280;66534;52.370;4.832;2023-02-17T01:23:01;101805.78;;;8.86;100.00
69667;BME280;66534;52.370;4.832;2023-02-17T01:23:31;101804.91;;;8.86;100.00
69667;BME280;66534;52.370;4.832;2023-02-17T01:24:03;101814.50;;;8.85;100.00
69667;BME280;66534;52.370;4.832;2023-02-17T01:24:35;101807.53;;;8.86;100.00
69667;BME280;66534;52.370;4.832;2023-02-17T01:25:05;101811.94;;;8.84;100.00
69667;BME280;66534;52.370;4.832;2023-02-17T01:25:36;101810.97;;;8.88;100.00
69667;BME280;66534;52.370;4.832;2023-02-17T01:26:12;101807.47;;;8.89;100.00
69667;BME280;66534;52.370;4.832;2023-02-17T01:26:46;101813.50;;;8.92;100.00
69667;BME280;66534;52.370;4.832;2023-02-17T01:27:17;101810.03;;;8.92;100.00
69667;BME280;66534;52.370;4.832;2023-02-17T01:27:47;101819.53;;;8.94;100.00
69667;BME280;66534;52.370;4.832;2023-02-17T01:28:19;101823.16;;;8.89;100.00
69667;BME280;66534;52.370;4.832;2023-02-17T01:28:50;101819.59;;;8.93;100.00
69667;BME280;66534;52.370;4.832;2023-02-17T01:29:22;101817.81;;;8.93;100.00
69667;BME280;66534;52.370;4.832;2023-02-17T01:29:52;101811.75;;;8.93;100.00
69667;BME280;66534;52.370;4.832;2023-02-17T01:30:23;101823.00;;;8.96;100.00
69667;BME280;66534;52.370;4.832;2023-02-17T01:30:53;101821.25;;;8.97;100.00
69667;BME280;66534;52.370;4.832;2023-02-17T01:31:24;101821.25;;;8.97;100.00
69667;BME280;66534;52.370;4.832;2023-02-17T01:31:57;101823.81;;;8.98;100.00
69667;BME280;66534;52.370;4.832;2023-02-17T01:32:28;101830.78;;;9.00;100.00
69667;BME280;66534;52.370;4.832;2023-02-17T01:32:58;101824.72;;;8.97;100.00
69667;BME280;66534;52.370;4.832;2023-02-17T01:33:29;101822.19;;;8.93;100.00
69667;BME280;66534;52.370;4.832;2023-02-17T01:34:00;101830.00;;;8.94;100.00
69667;BME280;66534;52.370;4.832;2023-02-17T01:34:31;101827.53;;;8.88;100.00
69667;BME280;66534;52.370;4.832;2023-02-17T01:35:02;101831.00;;;8.90;100.00
69667;BME280;66534;52.370;4.832;2023-02-17T01:35:33;101828.28;;;8.93;100.00
69667;BME280;66534;52.370;4.832;2023-02-17T01:36:05;101830.13;;;8.90;100.00
69667;BME280;66534;52.370;4.832;2023-02-17T01:36:37;101838.91;;;8.87;100.00
69667;BME280;66534;52.370;4.832;2023-02-17T01:37:08;101827.59;;;8.85;100.00
69667;BME280;66534;52.370;4.832;2023-02-17T01:37:38;101812.69;;;8.90;100.00
69667;BME280;66534;52.370;4.832;2023-02-17T01:38:08;101832.72;;;8.90;100.00
69667;BME280;66534;52.370;4.832;2023-02-17T01:38:39;101815.34;;;8.87;100.00
69667;BME280;66534;52.370;4.832;2023-02-17T01:39:12;101807.53;;;8.86;100.00
69667;BME280;66534;52.370;4.832;2023-02-17T01:39:43;101829.34;;;8.85;100.00
69667;BME280;66534;52.370;4.832;2023-02-17T01:40:14;101818.94;;;8.82;100.00
69667;BME280;66534;52.370;4.832;2023-02-17T01:40:45;101800.69;;;8.80;100.00
69667;BME280;66534;52.370;4.832;2023-02-17T01:41:20;101806.66;;;8.85;100.00
69667;BME280;66534;52.370;4.832;2023-02-17T01:41:52;101809.31;;;8.84;100.00
69667;BME280;66534;52.370;4.832;2023-02-17T01:42:23;101806.66;;;8.87;100.00
69667;BME280;66534;52.370;4.832;2023-02-17T01:42:53;101812.84;;;8.83;100.00
69667;BME280;66534;52.370;4.832;2023-02-17T01:43:23;101805.84;;;8.83;100.00
69667;BME280;66534;52.370;4.832;2023-02-17T01:45:57;101816.44;;;8.77;100.00
69667;BME280;66534;52.370;4.832;2023-02-17T01:46:33;101815.63;;;8.75;100.00
69667;BME280;66534;52.370;4.832;2023-02-17T01:47:04;101814.00;;;8.69;100.00
69667;BME280;66534;52.370;4.832;2023-02-17T01:47:34;101811.34;;;8.71;100.00
69667;BME280;66534;52.370;4.832;2023-02-17T01:48:07;101809.69;;;8.67;100.00
69667;BME280;66534;52.370;4.832;2023-02-17T01:48:45;101810.59;;;8.66;100.00
69667;BME280;66534;52.370;4.832;2023-02-17T01:49:56;101807.13;;;8.65;100.00
69667;BME280;66534;52.370;4.832;2023-02-17T01:50:29;101807.13;;;8.65;100.00
69667;BME280;66534;52.370;4.832;2023-02-17T01:51:07;101797.50;;;8.66;100.00
69667;BME280;66534;52.370;4.832;2023-02-17T01:51:40;101794.03;;;8.65;100.00
69667;BME280;66534;52.370;4.832;2023-02-17T01:52:21;101794.09;;;8.62;100.00
69667;BME280;66534;52.370;4.832;2023-02-17T01:52:55;101805.34;;;8.66;100.00
69667;BME280;66534;52.370;4.832;2023-02-17T01:53:38;101787.09;;;8.63;100.00
69667;BME280;66534;52.370;4.832;2023-02-17T01:54:26;101787.09;;;8.63;100.00
69667;BME280;66534;52.370;4.832;2023-02-17T01:55:04;101784.56;;;8.60;100.00
69667;BME280;66534;52.370;4.832;2023-02-17T01:55:40;101769.75;;;8.59;100.00
69667;BME280;66534;52.370;4.832;2023-02-17T01:56:11;101776.69;;;8.60;100.00
69667;BME280;66534;52.370;4.832;2023-02-17T01:56:44;101776.75;;;8.58;100.00
69667;BME280;66534;52.370;4.832;2023-02-17T01:57:18;101785.44;;;8.59;100.00
69667;BME280;66534;52.370;4.832;2023-02-17T01:57:53;101765.34;;;8.61;100.00
69667;BME280;66534;52.370;4.832;2023-02-17T01:58:27;101774.94;;;8.62;100.00
69667;BME280;66534;52.370;4.832;2023-02-17T01:59:00;101761.88;;;8.60;100.00
69667;BME280;66534;52.370;4.832;2023-02-17T01:59:34;101769.59;;;8.65;100.00
69667;BME280;66534;52.370;4.832;2023-02-17T02:00:05;101770.50;;;8.64;100.00
69667;BME280;66534;52.370;4.832;2023-02-17T02:00:37;101775.81;;;8.61;100.00
69667;BME280;66534;52.370;4.832;2023-02-17T02:01:08;101775.88;;;8.58;100.00
69667;BME280;66534;52.370;4.832;2023-02-17T02:01:38;101774.13;;;8.58;100.00
69667;BME280;66534;52.370;4.832;2023-02-17T02:02:09;101771.50;;;8.58;100.00
69667;BME280;66534;52.370;4.832;2023-02-17T02:02:41;101767.19;;;8.57;100.00
69667;BME280;66534;52.370;4.832;2023-02-17T02:03:14;101774.13;;;8.58;100.00
69667;BME280;66534;52.370;4.832;2023-02-17T02:03:45;101774.09;;;8.60;100.00
69667;BME280;66534;52.370;4.832;2023-02-17T02:04:17;101776.75;;;8.57;100.00
69667;BME280;66534;52.370;4.832;2023-02-17T02:04:51;101767.97;;;8.61;100.00
69667;BME280;66534;52.370;4.832;2023-02-17T02:05:22;101763.63;;;8.60;100.00
69667;BME280;66534;52.370;4.832;2023-02-17T02:05:53;101764.47;;;8.60;100.00
69667;BME280;66534;52.370;4.832;2023-02-17T02:06:25;101775.03;;;8.57;100.00
69667;BME280;66534;52.370;4.832;2023-02-17T02:06:58;101778.50;;;8.58;100.00
69667;BME280;66534;52.370;4.832;2023-02-17T02:07:29;101779.31;;;8.60;100.00
69667;BME280;66534;52.370;4.832;2023-02-17T02:08:03;101765.38;;;8.59;100.00
69667;BME280;66534;52.370;4.832;2023-02-17T02:08:37;101774.88;;;8.63;100.00
69667;BME280;66534;52.370;4.832;2023-02-17T02:09:38;101781.97;;;8.58;100.00
69667;BME280;66534;52.370;4.832;2023-02-17T02:10:11;101786.25;;;8.61;100.00
69667;BME280;66534;52.370;4.832;2023-02-17T02:10:42;101782.88;;;8.57;100.00
69667;BME280;66534;52.370;4.832;2023-02-17T02:11:13;101774.16;;;8.57;100.00
69667;BME280;66534;52.370;4.832;2023-02-17T02:11:43;101786.38;;;8.56;100.00
69667;BME280;66534;52.370;4.832;2023-02-17T02:12:36;101780.22;;;8.59;100.00
69667;BME280;66534;52.370;4.832;2023-02-17T02:13:05;101770.56;;;8.62;100.00
69667;BME280;66534;52.370;4.832;2023-02-17T02:13:36;101778.41;;;8.61;100.00
69667;BME280;66534;52.370;4.832;2023-02-17T02:14:06;101765.44;;;8.58;100.00
69667;BME280;66534;52.370;4.832;2023-02-17T02:14:38;101770.66;;;8.56;100.00
69667;BME280;66534;52.370;4.832;2023-02-17T02:15:10;101779.38;;;8.57;100.00
69667;BME280;66534;52.370;4.832;2023-02-17T02:15:47;101762.72;;;8.61;100.00
69667;BME280;66534;52.370;4.832;2023-02-17T02:17:26;101762.56;;;8.68;100.00
69667;BME280;66534;52.370;4.832;2023-02-17T02:24:23;101755.72;;;8.63;100.00
69667;BME280;66534;52.370;4.832;2023-02-17T02:27:58;101754.69;;;8.70;100.00
69667;BME280;66534;52.370;4.832;2023-02-17T02:28:58;101762.47;;;8.73;100.00
69667;BME280;66534;52.370;4.832;2023-02-17T02:31:05;101758.72;;;8.85;100.00
69667;BME280;66534;52.370;4.832;2023-02-17T02:31:54;101748.28;;;8.83;100.00
69667;BME280;66534;52.370;4.832;2023-02-17T02:34:00;101752.66;;;8.83;100.00
69667;BME280;66534;52.370;4.832;2023-02-17T02:34:41;101744.72;;;8.86;100.00
69667;BME280;66534;52.370;4.832;2023-02-17T02:36:30;101736.88;;;8.86;100.00
69667;BME280;66534;52.370;4.832;2023-02-17T02:37:20;101733.38;;;8.87;100.00
69667;BME280;66534;52.370;4.832;2023-02-17T02:38:00;101731.66;;;8.86;100.00
69667;BME280;66534;52.370;4.832;2023-02-17T02:39:28;101735.97;;;8.88;100.00
69667;BME280;66534;52.370;4.832;2023-02-17T02:39:41;101735.00;;;8.92;100.00
69667;BME280;66534;52.370;4.832;2023-02-17T02:40:16;101730.72;;;8.88;100.00
69667;BME280;66534;52.370;4.832;2023-02-17T02:40:53;101727.16;;;8.92;100.00
69667;BME280;66534;52.370;4.832;2023-02-17T02:41:30;101726.25;;;8.93;100.00
69667;BME280;66534;52.370;4.832;2023-02-17T02:42:05;101729.66;;;8.97;100.00
69667;BME280;66534;52.370;4.832;2023-02-17T02:42:40;101726.06;;;9.01;100.00
69667;BME280;66534;52.370;4.832;2023-02-17T02:43:12;101737.38;;;9.03;100.00
69667;BME280;66534;52.370;4.832;2023-02-17T02:43:46;101719.13;;;9.00;100.00
69667;BME280;66534;52.370;4.832;2023-02-17T02:44:18;101737.44;;;8.98;100.00
69667;BME280;66534;52.370;4.832;2023-02-17T02:44:50;101726.97;;;9.00;100.00
69667;BME280;66534;52.370;4.832;2023-02-17T02:45:20;101734.03;;;8.96;100.00
69667;BME280;66534;52.370;4.832;2023-02-17T02:45:51;101738.41;;;8.96;100.00
69667;BME280;66534;52.370;4.832;2023-02-17T02:46:21;101728.84;;;8.93;100.00
69667;BME280;66534;52.370;4.832;2023-02-17T02:46:58;101743.69;;;8.93;100.00
69667;BME280;66534;52.370;4.832;2023-02-17T02:47:42;101740.19;;;8.94;100.00
69667;BME280;66534;52.370;4.832;2023-02-17T02:48:14;101738.47;;;8.93;100.00
69667;BME280;66534;52.370;4.832;2023-02-17T02:48:45;101731.53;;;8.92;100.00
69667;BME280;66534;52.370;4.832;2023-02-17T02:49:16;101735.00;;;8.92;100.00
69667;BME280;66534;52.370;4.832;2023-02-17T02:49:47;101737.56;;;8.95;100.00
69667;BME280;66534;52.370;4.832;2023-02-17T02:50:23;101737.56;;;8.94;100.00
69667;BME280;66534;52.370;4.832;2023-02-17T02:54:56;101726.91;;;9.03;100.00
69667;BME280;66534;52.370;4.832;2023-02-17T03:00:13;101727.09;;;8.95;100.00
69667;BME280;66534;52.370;4.832;2023-02-17T03:00:58;101727.16;;;8.92;100.00
69667;BME280;66534;52.370;4.832;2023-02-17T03:01:47;101715.78;;;8.93;100.00
69667;BME280;66534;52.370;4.832;2023-02-17T03:03:40;101720.94;;;8.96;100.00
69667;BME280;66534;52.370;4.832;2023-02-17T03:06:53;101695.50;;;9.03;100.00
69667;BME280;66534;52.370;4.832;2023-02-17T03:08:42;101703.41;;;9.00;100.00
69667;BME280;66534;52.370;4.832;2023-02-17T03:09:21;101710.44;;;8.98;100.00
69667;BME280;66534;52.370;4.832;2023-02-17T03:09:55;101706.94;;;8.99;100.00
69667;BME280;66534;52.370;4.832;2023-02-17T03:10:27;101703.47;;;8.97;100.00
69667;BME280;66534;52.370;4.832;2023-02-17T03:10:58;101699.16;;;8.96;100.00
69667;BME280;66534;52.370;4.832;2023-02-17T03:11:30;101700.06;;;8.93;100.00
69667;BME280;66534;52.370;4.832;2023-02-17T03:12:03;101705.28;;;8.95;100.00
69667;BME280;66534;52.370;4.832;2023-02-17T03:12:35;101701.72;;;8.97;100.00
69667;BME280;66534;52.370;4.832;2023-02-17T03:13:08;101699.09;;;8.99;100.00
69667;BME280;66534;52.370;4.832;2023-02-17T03:13:39;101698.94;;;9.05;100.00
69667;BME280;66534;52.370;4.832;2023-02-17T03:14:11;101699.03;;;9.01;100.00
69667;BME280;66534;52.370;4.832;2023-02-17T03:14:43;101701.66;;;9.01;100.00
69667;BME280;66534;52.370;4.832;2023-02-17T03:15:27;101715.72;;;8.96;100.00
69667;BME280;66534;52.370;4.832;2023-02-17T03:16:00;101703.53;;;8.95;100.00
69667;BME280;66534;52.370;4.832;2023-02-17T03:16:32;101710.47;;;8.96;100.00
69667;BME280;66534;52.370;4.832;2023-02-17T03:17:03;101694.03;;;8.91;100.00
69667;BME280;66534;52.370;4.832;2023-02-17T03:17:34;101704.41;;;8.94;100.00
69667;BME280;66534;52.370;4.832;2023-02-17T03:18:04;101697.56;;;8.90;100.00
69667;BME280;66534;52.370;4.832;2023-02-17T03:18:35;101700.22;;;8.87;100.00
69667;BME280;66534;52.370;4.832;2023-02-17T03:19:05;101701.09;;;8.88;100.00
69667;BME280;66534;52.370;4.832;2023-02-17T03:19:36;101695.75;;;8.92;100.00
69667;BME280;66534;52.370;4.832;2023-02-17T03:20:07;101695.84;;;8.88;100.00
69667;BME280;66534;52.370;4.832;2023-02-17T03:20:42;101694.16;;;8.87;100.00
69667;BME280;66534;52.370;4.832;2023-02-17T03:21:20;101692.41;;;8.86;100.00
69667;BME280;66534;52.370;4.832;2023-02-17T03:22:34;101688.06;;;8.86;100.00
69667;BME280;66534;52.370;4.832;2023-02-17T03:23:07;101688.94;;;8.85;100.00